createdAt,value
2018-03-08T00:02:16.626Z,94103.73
2018-03-08T00:04:50.660Z,94108.50
2018-03-08T00:07:23.913Z,94119.53
2018-03-08T00:09:57.186Z,94119.63
2018-03-08T00:12:30.454Z,94126.52
2018-03-08T00:15:03.721Z,94121.56
2018-03-08T01:45:55.929Z,94163.10
2018-03-08T01:48:29.967Z,94159.03
2018-03-08T01:51:03.245Z,94173.78
2018-03-08T01:53:36.493Z,94164.57
2018-03-08T01:56:09.766Z,94170.31
2018-03-08T01:58:43.012Z,94176.67
2018-03-08T03:32:21.912Z,94210.06
2018-03-08T03:34:55.157Z,94219.86
2018-03-08T03:37:29.202Z,94211.47
2018-03-08T03:40:02.440Z,94215.41
2018-03-08T03:42:35.712Z,94216.73
2018-03-08T03:45:08.953Z,94236.56
2018-03-08T04:46:17.445Z,94269.31
2018-03-08T04:48:50.730Z,94270.30
2018-03-08T04:51:23.954Z,94268.48
2018-03-08T04:53:57.226Z,94275.06
2018-03-08T04:56:30.484Z,94271.03
2018-03-08T04:59:03.756Z,94286.81
2018-03-08T05:30:59.378Z,94316.71
2018-03-08T05:33:32.653Z,94318.20
2018-03-08T05:36:05.901Z,94319.30
2018-03-08T05:38:39.221Z,94321.20
2018-03-08T05:41:12.476Z,94328.27
2018-03-08T05:43:45.745Z,94324.64
2018-03-08T05:46:19.009Z,94332.03
2018-03-08T05:48:52.281Z,94331.63
2018-03-08T05:51:25.520Z,94340.92
2018-03-08T05:53:58.804Z,94339.11
2018-03-08T05:56:32.817Z,94342.47
2018-03-08T05:59:06.869Z,94345.09
2018-03-08T06:01:40.139Z,94356.12
2018-03-08T06:04:13.377Z,94353.98
2018-03-08T06:06:46.657Z,94352.58
2018-03-08T06:09:19.909Z,94368.77
2018-03-08T06:11:53.934Z,94366.64
2018-03-08T06:14:27.216Z,94388.27
2018-03-08T06:17:01.225Z,94379.56
2018-03-08T06:19:35.398Z,94369.09
2018-03-08T06:22:08.636Z,94397.39
2018-03-08T06:24:41.900Z,94378.66
2018-03-08T06:27:15.148Z,94379.33
2018-03-08T06:29:48.431Z,94386.49
2018-03-08T06:32:21.702Z,94372.61
2018-03-08T06:34:55.754Z,94383.95
2018-03-08T06:37:29.577Z,94394.61
2018-03-08T06:40:02.866Z,94386.72
2018-03-08T06:42:36.118Z,94395.48
2018-03-08T06:45:10.153Z,94394.34
2018-03-08T06:47:43.393Z,94406.50
2018-03-08T06:50:16.661Z,94420.62
2018-03-08T06:52:49.934Z,94399.89
2018-03-08T06:55:23.205Z,94401.44
2018-03-08T06:57:56.481Z,94397.73
2018-03-08T07:00:29.734Z,94411.46
2018-03-08T07:03:03.018Z,94410.79
2018-03-08T07:05:36.286Z,94405.08
2018-03-08T07:08:09.580Z,94414.96
2018-03-08T07:10:42.830Z,94418.73
2018-03-08T07:13:16.108Z,94421.19
2018-03-08T07:15:49.417Z,94426.18
2018-03-08T07:18:22.721Z,94424.59
2018-03-08T07:20:55.967Z,94429.27
2018-03-08T07:23:29.230Z,94431.98
2018-03-08T07:26:03.247Z,94423.33
2018-03-08T07:28:37.322Z,94427.41
2018-03-08T08:03:31.906Z,94428.86
2018-03-08T08:09:16.645Z,94438.93
2018-03-08T08:11:49.922Z,94426.22
2018-03-08T08:14:23.170Z,94446.14
2018-03-08T09:02:29.661Z,94430.04
2018-03-08T09:05:03.670Z,94433.56
2018-03-08T09:07:37.729Z,94424.47
2018-03-08T09:10:10.953Z,94419.73
2018-03-08T09:12:44.230Z,94424.16
2018-03-08T10:00:56.206Z,94394.62
2018-03-08T10:03:29.478Z,94403.34
2018-03-08T10:06:02.724Z,94397.93
2018-03-08T10:08:35.993Z,94404.27
2018-03-08T10:11:10.002Z,94392.34
2018-03-08T10:13:44.056Z,94406.44
2018-03-08T11:04:52.739Z,94392.98
2018-03-08T11:07:26.010Z,94388.46
2018-03-08T11:09:59.262Z,94376.16
2018-03-08T11:12:32.533Z,94386.59
2018-03-08T11:15:05.776Z,94384.19
2018-03-08T12:03:11.120Z,94338.28
2018-03-08T12:05:44.369Z,94334.75
2018-03-08T12:08:17.650Z,94335.38
2018-03-08T12:10:51.652Z,94328.98
2018-03-08T12:13:25.700Z,94348.66
2018-03-08T13:01:32.578Z,94299.77
2018-03-08T13:04:06.593Z,94311.80
2018-03-08T13:06:39.885Z,94292.42
2018-03-08T13:09:13.146Z,94293.63
2018-03-08T13:11:46.427Z,94295.89
2018-03-08T13:14:19.661Z,94294.43
2018-03-08T14:02:27.430Z,94225.55
2018-03-08T14:05:01.479Z,94216.93
2018-03-08T14:07:34.738Z,94218.31
2018-03-08T14:10:08.894Z,94223.77
2018-03-08T14:12:42.189Z,94235.52
2018-03-08T15:00:55.793Z,94166.06
2018-03-08T15:03:29.083Z,94157.09
2018-03-08T15:06:02.342Z,94151.94
2018-03-08T15:08:35.597Z,94148.73
2018-03-08T15:11:08.872Z,94152.31
2018-03-08T15:13:42.153Z,94150.11
2018-03-08T15:45:54.076Z,94130.57
2018-03-08T15:48:27.329Z,94130.05
2018-03-08T15:51:00.618Z,94127.24
2018-03-08T15:53:33.874Z,94123.48
2018-03-08T15:56:07.167Z,94122.70
2018-03-08T15:58:40.445Z,94133.67
2018-03-08T16:30:56.300Z,94120.19
2018-03-08T16:33:29.549Z,94126.56
2018-03-08T16:36:02.865Z,94125.16
2018-03-08T16:38:36.085Z,94122.80
2018-03-08T16:41:09.369Z,94132.02
2018-03-08T16:43:42.633Z,94127.14
2018-03-08T16:46:15.930Z,94125.11
2018-03-08T16:48:49.933Z,94125.44
2018-03-08T16:51:23.437Z,94123.59
2018-03-08T16:53:56.685Z,94127.08
2018-03-08T16:56:29.966Z,94125.16
2018-03-08T16:59:03.234Z,94125.48
2018-03-08T17:01:37.254Z,94131.38
2018-03-08T17:04:11.294Z,94122.02
2018-03-08T17:06:44.554Z,94128.16
2018-03-08T17:09:18.639Z,94129.41
2018-03-08T17:11:51.837Z,94137.98
2018-03-08T17:14:25.105Z,94130.42
2018-03-08T17:16:58.354Z,94134.52
2018-03-08T17:19:32.399Z,94142.58
2018-03-08T17:22:05.650Z,94141.47
2018-03-08T17:24:38.925Z,94139.55
2018-03-08T17:27:12.194Z,94137.52
2018-03-08T17:29:45.442Z,94144.25
2018-03-08T17:32:18.879Z,94144.03
2018-03-08T17:34:52.340Z,94150.77
2018-03-08T17:37:25.834Z,94144.77
2018-03-08T17:39:59.241Z,94150.80
2018-03-08T17:42:32.547Z,94161.41
2018-03-08T17:45:05.787Z,94159.38
2018-03-08T17:47:39.060Z,94167.84
2018-03-08T17:50:12.304Z,94165.81
2018-03-08T17:52:46.346Z,94170.30
2018-03-08T17:55:19.616Z,94170.41
2018-03-08T17:57:53.690Z,94169.08
2018-03-08T18:00:26.967Z,94177.14
2018-03-08T18:03:00.231Z,94181.02
2018-03-08T18:05:33.481Z,94188.16
2018-03-08T18:08:06.732Z,94186.42
2018-03-08T18:10:40.008Z,94190.08
2018-03-08T18:13:13.272Z,94195.38
2018-03-08T18:15:47.290Z,94202.01
2018-03-08T18:18:21.331Z,94204.36
2018-03-08T18:20:54.590Z,94201.00
2018-03-08T18:23:29.745Z,94204.27
2018-03-08T18:26:06.370Z,94205.41
2018-03-08T18:28:41.584Z,94202.16
2018-03-08T18:31:14.834Z,94212.97
2018-03-08T18:33:48.105Z,94218.45
2018-03-08T18:36:21.390Z,94217.45
2018-03-08T18:38:54.671Z,94221.64
2018-03-08T18:41:27.913Z,94225.63
2018-03-08T18:44:01.215Z,94217.55
2018-03-08T18:46:35.226Z,94220.31
2018-03-08T18:49:09.265Z,94212.38
2018-03-08T18:51:42.514Z,94212.28
2018-03-08T18:54:15.798Z,94206.48
2018-03-08T18:56:49.042Z,94215.23
2018-03-08T18:59:22.336Z,94212.80
2018-03-08T19:01:55.579Z,94215.56
2018-03-08T19:04:28.858Z,94209.22
2018-03-08T19:07:02.116Z,94215.25
2018-03-08T19:09:35.381Z,94207.72
2018-03-08T19:12:09.452Z,94205.78
2018-03-08T19:14:42.698Z,94202.94
2018-03-08T19:17:15.982Z,94200.37
2018-03-08T19:19:49.236Z,94200.28
2018-03-08T19:22:22.507Z,94197.64
2018-03-08T19:24:55.761Z,94202.31
2018-03-08T19:27:29.802Z,94199.56
2018-03-08T19:30:03.049Z,94211.70
2018-03-08T19:32:36.448Z,94208.44
2018-03-08T19:35:10.481Z,94213.03
2018-03-08T19:37:44.514Z,94210.26
2018-03-08T19:40:17.789Z,94212.20
2018-03-08T19:42:51.056Z,94210.67
2018-03-08T19:45:24.310Z,94220.05
2018-03-08T19:47:57.590Z,94221.48
2018-03-08T19:50:30.848Z,94225.77
2018-03-08T19:53:04.144Z,94228.00
2018-03-08T19:55:38.157Z,94232.80
2018-03-08T19:58:12.190Z,94235.03
2018-03-08T20:00:45.683Z,94235.23
2018-03-08T20:03:19.918Z,94233.92
2018-03-08T20:05:53.182Z,94235.75
2018-03-08T20:08:26.446Z,94237.08
2018-03-08T20:10:59.701Z,94238.91
2018-03-08T20:13:32.976Z,94238.17
2018-03-08T20:16:07.056Z,94243.27
2018-03-08T20:18:40.266Z,94252.84
2018-03-08T20:21:13.529Z,94252.95
2018-03-08T20:23:46.801Z,94256.41
2018-03-08T20:26:20.076Z,94256.11
2018-03-08T20:28:53.324Z,94252.24
2018-03-08T20:31:26.603Z,94251.63
2018-03-08T20:33:59.849Z,94251.63
2018-03-08T20:36:33.121Z,94251.42
2018-03-08T20:39:07.138Z,94253.26
2018-03-08T20:41:41.177Z,94256.63
2018-03-08T20:44:14.432Z,94261.08
2018-03-08T20:46:47.694Z,94271.19
2018-03-08T20:49:20.946Z,94266.06
2018-03-08T20:51:54.228Z,94264.44
2018-03-08T20:54:28.241Z,94266.68
2018-03-08T20:57:02.282Z,94271.05
2018-03-08T20:59:35.536Z,94270.34
2018-03-08T21:02:09.583Z,94277.37
2018-03-08T21:04:42.842Z,94284.70
2018-03-08T21:07:16.885Z,94288.58
2018-03-08T21:09:50.133Z,94294.89
2018-03-08T21:12:23.405Z,94293.57
2018-03-08T21:14:56.682Z,94297.13
2018-03-08T21:17:30.128Z,94285.80
2018-03-08T21:20:04.173Z,94294.86
2018-03-08T21:22:37.429Z,94299.45
2018-03-08T21:25:10.702Z,94301.89
2018-03-08T21:27:43.954Z,94311.88
2018-03-08T21:30:17.244Z,94315.13
2018-03-08T21:32:50.497Z,94324.09
2018-03-08T21:35:23.779Z,94332.03
2018-03-08T21:37:57.064Z,94331.22
2018-03-08T21:40:30.340Z,94337.84
2018-03-08T21:43:03.581Z,94348.42
2018-03-08T21:45:36.863Z,94353.21
2018-03-08T21:48:10.122Z,94348.42
2018-03-08T21:50:43.380Z,94353.31
2018-03-08T21:53:17.401Z,94354.41
2018-03-08T21:55:50.674Z,94349.92
2018-03-08T21:58:23.962Z,94350.63
2018-03-08T22:00:57.211Z,94347.06
2018-03-08T22:03:30.489Z,94353.64
2018-03-08T22:06:03.742Z,94351.78
2018-03-08T22:08:37.002Z,94356.14
2018-03-08T22:11:10.454Z,94354.18
2018-03-08T22:13:44.461Z,94354.38
2018-03-08T22:16:17.745Z,94359.26
2018-03-08T22:18:51.752Z,94356.61
2018-03-08T22:21:25.028Z,94356.20
2018-03-08T22:23:58.357Z,94362.51
2018-03-08T22:26:31.635Z,94362.88
2018-03-08T22:29:04.870Z,94357.48
2018-03-08T22:31:38.170Z,94360.83
2018-03-08T22:34:11.409Z,94370.59
2018-03-08T22:36:44.713Z,94371.30
2018-03-08T22:39:18.724Z,94365.77
2018-03-08T22:41:52.757Z,94368.52
2018-03-08T22:44:26.009Z,94370.76
2018-03-08T22:46:59.286Z,94366.89
2018-03-08T22:49:32.530Z,94368.31
2018-03-08T22:52:06.563Z,94372.28
2018-03-08T22:54:39.841Z,94373.39
2018-03-08T22:57:13.868Z,94373.49
2018-03-08T22:59:47.112Z,94371.55
2018-03-08T23:02:25.834Z,94367.34
2018-03-08T23:04:59.078Z,94366.13
2018-03-08T23:07:32.367Z,94361.84
2018-03-08T23:10:05.604Z,94367.23
2018-03-08T23:12:38.889Z,94357.67
2018-03-08T23:15:12.134Z,94357.36
2018-03-08T23:17:46.180Z,94363.25
2018-03-08T23:20:19.449Z,94364.88
2018-03-08T23:22:52.721Z,94363.25
2018-03-08T23:25:26.734Z,94368.03
2018-03-08T23:28:00.829Z,94366.30
2018-03-08T23:30:34.065Z,94374.40
2018-03-08T23:33:07.355Z,94373.99
2018-03-08T23:35:40.606Z,94375.10
2018-03-08T23:38:13.881Z,94382.02
2018-03-08T23:40:47.153Z,94383.04
2018-03-08T23:43:20.415Z,94382.13
2018-03-08T23:45:54.428Z,94369.72
2018-03-08T23:48:28.461Z,94381.52
2018-03-08T23:51:01.734Z,94382.63
2018-03-08T23:53:35.762Z,94386.09
2018-03-08T23:56:09.024Z,94388.73
2018-03-08T23:58:42.281Z,94387.71
